»·PEaware :: N1507D KRAL-KSBA

N1507D :: KRAL-KSBA

FLIGHT INFORMATION

Flight Status: Arrived
Operator: Privately registered:
United States
More flights under this callsign
Pilot: Fabio L. (11512)
Aircraft: CESSNA 172 SKYHAWK
(C172)
More flights by this aircraft type
Origin: KRAL Riverside Mun
United States
Destination: KSBA Santa Barbara Mun
United States
More flights between these airports :: More routes between these airports
Route: +RAL1 PDZ V186 DEANO V27 KWANG
File this flight plan on PilotEdge
Remarks: TEC route ONTP16
Altitude:
(Current/Filed)
6,000ft
Speed:
(Current/Filed)
113kts
Departed: 24-Jul-20 08:18 PM
Arrived: 24-Jul-20 09:30 PM
Distance/Time
Traveled:
122nm/1:12
Distance/Time
To Go:
Arrived

Flight Plot

Page will automatically refresh every two minutes.


Map Options




Map Legend


Flown Route
Filed Route
Departure Airport
Arrival Airport
Navaid (VOR, NDB)
Fix

Horizontal Profiles

Position Reports

Time Latitude Longitude Heading Altitude Ground
Speed
24-Jul-20 19:49 33.950045 -117.442597 299 819ft 0kts
24-Jul-20 19:50 33.950045 -117.442597 299 819ft 0kts
24-Jul-20 19:51 33.950045 -117.442597 299 819ft 0kts
24-Jul-20 19:52 33.950045 -117.442597 299 819ft 0kts
24-Jul-20 19:53 33.950045 -117.442597 299 819ft 0kts
24-Jul-20 19:54 33.950045 -117.442597 299 819ft 0kts
24-Jul-20 20:01 33.950045 -117.442597 299 819ft 0kts
24-Jul-20 20:02 33.950045 -117.442597 299 819ft 0kts
24-Jul-20 20:03 33.950045 -117.442597 299 819ft 0kts
24-Jul-20 20:04 33.950045 -117.442597 299 819ft 0kts
24-Jul-20 20:05 33.950045 -117.442597 299 819ft 0kts
24-Jul-20 20:06 33.950045 -117.442597 299 819ft 0kts
24-Jul-20 20:07 33.950060 -117.442629 300 819ft 2kts
24-Jul-20 20:08 33.950770 -117.441745 109 819ft 7kts
24-Jul-20 20:09 33.950528 -117.441168 101 819ft 0kts
24-Jul-20 20:10 33.950526 -117.441158 99 819ft 1kts
24-Jul-20 20:11 33.950508 -117.438500 102 819ft 11kts
24-Jul-20 20:12 33.949902 -117.435387 101 819ft 10kts
24-Jul-20 20:13 33.949967 -117.434973 14 819ft 0kts
24-Jul-20 20:14 33.949967 -117.434973 14 819ft 0kts
24-Jul-20 20:15 33.949967 -117.434973 14 819ft 0kts
24-Jul-20 20:16 33.949967 -117.434973 14 819ft 0kts
24-Jul-20 20:17 33.951372 -117.439080 283 819ft 64kts
24-Jul-20 20:18 33.954294 -117.463203 274 1417ft 75kts
24-Jul-20 20:19 33.957033 -117.488531 272 2003ft 75kts
24-Jul-20 20:20 33.959362 -117.515720 271 2592ft 87kts
24-Jul-20 20:21 33.961618 -117.544321 254 3279ft 82kts
24-Jul-20 20:22 33.964807 -117.571432 276 3918ft 82kts
24-Jul-20 20:23 33.970216 -117.598399 278 4444ft 93kts
24-Jul-20 20:24 33.977533 -117.630417 278 4996ft 93kts
24-Jul-20 20:25 33.982829 -117.658555 273 5579ft 83kts
24-Jul-20 20:26 33.988232 -117.686390 278 5963ft 103kts
24-Jul-20 20:27 33.997116 -117.722685 279 5988ft 111kts
24-Jul-20 20:28 34.004399 -117.758442 278 5992ft 109kts
24-Jul-20 20:29 34.011681 -117.794052 278 5996ft 109kts
24-Jul-20 20:30 34.020258 -117.829543 285 6000ft 110kts
24-Jul-20 20:31 34.031026 -117.864349 285 6002ft 111kts
24-Jul-20 20:32 34.041846 -117.899361 285 6000ft 111kts
24-Jul-20 20:33 34.052656 -117.934403 285 5998ft 111kts
24-Jul-20 20:34 34.063504 -117.969561 286 5996ft 111kts
24-Jul-20 20:35 34.074341 -118.004855 286 5993ft 112kts
24-Jul-20 20:36 34.085103 -118.040296 285 5990ft 112kts
24-Jul-20 20:37 34.095681 -118.075882 286 5985ft 113kts
24-Jul-20 20:38 34.106582 -118.111582 286 5985ft 112kts
24-Jul-20 20:39 34.116311 -118.147440 268 5989ft 110kts
24-Jul-20 20:40 34.116501 -118.184627 266 5988ft 111kts
24-Jul-20 20:41 34.116681 -118.221935 266 5989ft 111kts
24-Jul-20 20:42 34.116964 -118.259349 266 5990ft 111kts
24-Jul-20 20:43 34.117349 -118.296740 266 5991ft 111kts
24-Jul-20 20:44 34.117839 -118.334311 266 5992ft 111kts
24-Jul-20 20:45 34.118417 -118.371685 266 5993ft 111kts
24-Jul-20 20:46 34.119069 -118.408922 266 5993ft 110kts
24-Jul-20 20:47 34.119785 -118.445904 267 5994ft 110kts
24-Jul-20 20:48 34.120564 -118.482920 267 5995ft 109kts
24-Jul-20 20:49 34.121393 -118.519660 267 5995ft 109kts
24-Jul-20 20:50 34.122274 -118.556403 267 5996ft 109kts
24-Jul-20 20:51 34.123202 -118.592901 267 5997ft 108kts
24-Jul-20 20:52 34.124182 -118.629164 267 5999ft 108kts
24-Jul-20 20:53 34.125205 -118.665331 267 6001ft 107kts
24-Jul-20 20:54 34.127022 -118.701260 286 5999ft 109kts
24-Jul-20 20:55 34.134212 -118.736534 278 5994ft 108kts
24-Jul-20 20:56 34.141613 -118.771748 280 5996ft 107kts
24-Jul-20 20:57 34.149507 -118.806522 280 5997ft 107kts
24-Jul-20 20:58 34.157390 -118.841365 280 5997ft 108kts
24-Jul-20 20:59 34.165365 -118.876572 280 5996ft 109kts
24-Jul-20 21:00 34.173383 -118.911552 289 5997ft 107kts
24-Jul-20 21:01 34.181265 -118.946166 288 5997ft 105kts
24-Jul-20 21:02 34.188956 -118.980255 288 5996ft 104kts
24-Jul-20 21:03 34.196584 -119.014090 288 5996ft 103kts
24-Jul-20 21:04 34.204136 -119.047655 287 5999ft 102kts
24-Jul-20 21:05 34.211631 -119.081211 287 6002ft 103kts
24-Jul-20 21:06 34.219201 -119.114800 287 6002ft 103kts
24-Jul-20 21:07 34.226760 -119.148421 287 6002ft 103kts
24-Jul-20 21:08 34.234342 -119.182225 287 6002ft 103kts
24-Jul-20 21:09 34.241904 -119.215988 287 6002ft 103kts
24-Jul-20 21:10 34.249439 -119.249661 287 6002ft 104kts
24-Jul-20 21:11 34.257296 -119.283289 288 6002ft 104kts
24-Jul-20 21:12 34.265216 -119.317635 288 5774ft 110kts
24-Jul-20 21:13 34.273411 -119.353266 287 5273ft 109kts
24-Jul-20 21:14 34.281305 -119.388696 286 4772ft 108kts
24-Jul-20 21:15 34.288999 -119.423583 285 4399ft 106kts
24-Jul-20 21:16 34.296759 -119.458590 285 4114ft 106kts
24-Jul-20 21:17 34.304101 -119.492521 284 4009ft 103kts
24-Jul-20 21:18 34.313477 -119.525759 295 3963ft 108kts
24-Jul-20 21:19 34.327046 -119.560365 294 3449ft 120kts
24-Jul-20 21:20 34.340767 -119.595755 294 2747ft 113kts
24-Jul-20 21:21 34.354034 -119.630128 294 2221ft 115kts
24-Jul-20 21:22 34.367530 -119.665034 293 2101ft 111kts
24-Jul-20 21:23 34.380580 -119.698688 294 2101ft 110kts
24-Jul-20 21:24 34.395302 -119.730366 304 1822ft 106kts
24-Jul-20 21:25 34.412712 -119.759605 305 1234ft 105kts
24-Jul-20 21:26 34.426564 -119.788769 285 560ft 87kts
24-Jul-20 21:27 34.428405 -119.815155 267 398ft 75kts
24-Jul-20 21:28 34.427855 -119.839355 268 17ft 63kts
24-Jul-20 21:29 34.428363 -119.846074 63 17ft 6kts
24-Jul-20 21:30 34.429358 -119.843671 63 17ft 11kts
24-Jul-20 21:31 34.430787 -119.839630 48 17ft 8kts
24-Jul-20 21:32 34.431465 -119.839604 78 17ft 0kts
24-Jul-20 21:33 34.431465 -119.839604 78 17ft 0kts

Navigation Log

Ident Type
Flight plan parsing failed, navigation log unavailable